Time;durP1;ratioP1;P1;durP2;ratioP2;P2;SDS_P1;SDS_P2;PMS_P1;PMS_P2;Temp;Humidity;BMP_temperature;BMP_pressure;BME280_temperature;BME280_humidity;BME280_pressure;Samples;Min_cycle;Max_cycle;Signal;HPM_P1;HPM_P2
2024/03/21 00:01:42;;;;;;;6.50;5.63;;;;;;;;;;5056824;28;20025;-56
2024/03/21 00:04:08;;;;;;;5.68;4.70;;;;;;;;;;5056888;28;20025;-54
2024/03/21 00:06:35;;;;;;;7.20;5.32;;;;;;;;;;5056941;28;20029;-56
2024/03/21 00:09:01;;;;;;;5.72;5.18;;;;;;;;;;5057557;28;20061;-57
2024/03/21 00:11:27;;;;;;;7.05;4.32;;;;;;;;;;5056897;28;20029;-56
2024/03/21 00:13:53;;;;;;;6.43;4.95;;;;;;;;;;5056598;28;20025;-55
2024/03/21 00:16:19;;;;;;;5.85;4.93;;;;;;;;;;5056816;28;20458;-56
2024/03/21 00:18:45;;;;;;;7.25;5.03;;;;;;;;;;5057091;28;20390;-56
2024/03/21 00:21:11;;;;;;;7.10;4.88;;;;;;;;;;5056761;28;20021;-55
2024/03/21 00:23:37;;;;;;;5.32;4.18;;;;;;;;;;5056388;28;20032;-57
2024/03/21 00:26:03;;;;;;;6.55;4.70;;;;;;;;;;5056626;28;20029;-56
2024/03/21 00:28:29;;;;;;;7.88;3.97;;;;;;;;;;5056898;28;20024;-56
2024/03/21 00:30:56;;;;;;;4.75;3.72;;;;;;;;;;5056363;28;20025;-57
2024/03/21 00:33:25;;;;;;;7.95;4.90;;;;;;;;;;5057102;28;20059;-56
2024/03/21 00:35:51;;;;;;;5.10;4.40;;;;;;;;;;5056472;28;20040;-55
2024/03/21 00:38:17;;;;;;;8.35;4.10;;;;;;;;;;5056726;28;20451;-57
2024/03/21 00:40:43;;;;;;;5.68;4.55;;;;;;;;;;5056578;28;20111;-57
2024/03/21 00:43:10;;;;;;;7.00;3.95;;;;;;;;;;5056395;28;20033;-56
2024/03/21 00:45:36;;;;;;;7.35;3.95;;;;;;;;;;5055963;28;20543;-55
2024/03/21 00:48:05;;;;;;;5.25;3.42;;;;;;;;;;5056498;28;20156;-56
2024/03/21 00:50:31;;;;;;;5.20;3.60;;;;;;;;;;5056674;28;20031;-56
2024/03/21 00:52:57;;;;;;;6.07;3.95;;;;;;;;;;5057159;28;20116;-56
2024/03/21 00:55:23;;;;;;;5.60;3.75;;;;;;;;;;5056099;28;20036;-56
2024/03/21 00:57:49;;;;;;;4.10;3.05;;;;;;;;;;5056448;28;20072;-57
2024/03/21 01:00:15;;;;;;;4.22;2.65;;;;;;;;;;5055732;28;20033;-57
2024/03/21 01:02:41;;;;;;;3.65;3.08;;;;;;;;;;5055646;28;20048;-56
2024/03/21 01:05:08;;;;;;;4.03;3.25;;;;;;;;;;5055162;28;20052;-57
2024/03/21 01:07:34;;;;;;;5.78;3.80;;;;;;;;;;5056171;28;20524;-56
2024/03/21 01:10:00;;;;;;;3.83;3.25;;;;;;;;;;5056201;28;20032;-56
2024/03/21 01:12:27;;;;;;;5.78;3.83;;;;;;;;;;5055565;28;20033;-57
2024/03/21 01:14:53;;;;;;;5.25;3.72;;;;;;;;;;5055698;28;20104;-54
2024/03/21 01:17:19;;;;;;;4.30;3.50;;;;;;;;;;5055739;28;20056;-57
2024/03/21 01:19:44;;;;;;;4.05;3.40;;;;;;;;;;5055833;28;20478;-53
2024/03/21 01:22:10;;;;;;;4.50;3.03;;;;;;;;;;5055106;28;20056;-55
2024/03/21 01:24:37;;;;;;;4.35;3.65;;;;;;;;;;5055682;28;20061;-56
2024/03/21 01:27:04;;;;;;;4.28;3.58;;;;;;;;;;5054942;28;20451;-56
2024/03/21 01:29:30;;;;;;;4.45;3.40;;;;;;;;;;5055692;28;20091;-56
2024/03/21 01:31:55;;;;;;;4.88;3.53;;;;;;;;;;5054929;28;20117;-57
2024/03/21 01:34:21;;;;;;;4.82;3.58;;;;;;;;;;5055721;28;20422;-56
2024/03/21 01:36:50;;;;;;;4.15;3.10;;;;;;;;;;5054746;28;20021;-56
2024/03/21 01:39:16;;;;;;;4.05;3.33;;;;;;;;;;5055075;28;20041;-55
2024/03/21 01:41:42;;;;;;;4.68;3.75;;;;;;;;;;5055239;28;20143;-56
2024/03/21 01:44:15;;;;;;;4.72;3.40;;;;;;;;;;5055281;28;20032;-55
2024/03/21 01:46:41;;;;;;;8.05;4.07;;;;;;;;;;5055736;28;20033;-55
2024/03/21 01:49:07;;;;;;;5.10;3.97;;;;;;;;;;5055899;28;20363;-55
2024/03/21 01:51:33;;;;;;;3.80;3.20;;;;;;;;;;5055038;28;20474;-54
2024/03/21 01:53:59;;;;;;;4.53;3.40;;;;;;;;;;5055049;28;20029;-56
2024/03/21 01:56:25;;;;;;;4.28;3.38;;;;;;;;;;5054684;28;20059;-52
2024/03/21 01:58:51;;;;;;;4.60;3.75;;;;;;;;;;5055126;28;20071;-57
2024/03/21 02:01:24;;;;;;;5.30;3.53;;;;;;;;;;5054869;28;20079;-54
2024/03/21 02:03:52;;;;;;;4.40;3.30;;;;;;;;;;5055945;28;20379;-57
2024/03/21 02:06:18;;;;;;;5.95;3.30;;;;;;;;;;5054771;28;20071;-55
2024/03/21 02:08:44;;;;;;;4.82;3.03;;;;;;;;;;5055013;28;20112;-53
2024/03/21 02:11:11;;;;;;;3.20;2.75;;;;;;;;;;5054579;28;20063;-56
2024/03/21 02:13:37;;;;;;;3.58;2.70;;;;;;;;;;5054223;28;20028;-57
2024/03/21 02:16:03;;;;;;;5.10;3.10;;;;;;;;;;5054495;28;20091;-55
2024/03/21 02:18:29;;;;;;;4.18;2.75;;;;;;;;;;5054574;28;20090;-56
2024/03/21 02:20:55;;;;;;;3.25;2.47;;;;;;;;;;5054177;28;20033;-56
2024/03/21 02:23:21;;;;;;;4.15;2.58;;;;;;;;;;5054003;28;20375;-56
2024/03/21 02:25:47;;;;;;;3.75;2.67;;;;;;;;;;5054187;28;20029;-55
2024/03/21 02:28:13;;;;;;;4.10;2.70;;;;;;;;;;5054405;28;20474;-56
2024/03/21 02:30:39;;;;;;;3.50;2.35;;;;;;;;;;5054256;28;20028;-56
2024/03/21 02:33:05;;;;;;;3.42;2.72;;;;;;;;;;5054140;28;20033;-56
2024/03/21 02:35:31;;;;;;;3.35;2.25;;;;;;;;;;5054215;28;20379;-54
2024/03/21 02:37:57;;;;;;;2.67;2.15;;;;;;;;;;5054378;28;20112;-56
2024/03/21 02:40:23;;;;;;;4.68;2.30;;;;;;;;;;5054376;28;20057;-55
2024/03/21 02:42:49;;;;;;;3.38;2.55;;;;;;;;;;5054391;28;20032;-57
2024/03/21 02:45:15;;;;;;;3.40;1.92;;;;;;;;;;5054327;28;20036;-54
2024/03/21 02:47:41;;;;;;;2.65;1.77;;;;;;;;;;5054030;28;20021;-55
2024/03/21 02:50:08;;;;;;;2.55;2.05;;;;;;;;;;5053976;28;20025;-57
2024/03/21 02:52:34;;;;;;;3.00;2.30;;;;;;;;;;5053745;28;20422;-55
2024/03/21 02:55:00;;;;;;;4.47;2.45;;;;;;;;;;5053163;28;20025;-56
2024/03/21 02:57:26;;;;;;;2.58;1.52;;;;;;;;;;5053658;28;20049;-56
2024/03/21 02:59:52;;;;;;;3.45;2.03;;;;;;;;;;5052026;28;20098;-56
2024/03/21 03:02:18;;;;;;;3.72;2.67;;;;;;;;;;5053846;28;20036;-57
2024/03/21 03:04:44;;;;;;;3.58;2.42;;;;;;;;;;5053292;28;20086;-57
2024/03/21 03:07:10;;;;;;;3.30;2.30;;;;;;;;;;5053621;28;20056;-56
2024/03/21 03:09:36;;;;;;;3.60;2.33;;;;;;;;;;5054115;28;20029;-56
2024/03/21 03:12:02;;;;;;;2.55;1.75;;;;;;;;;;5053295;28;20028;-57
2024/03/21 03:14:28;;;;;;;4.10;2.00;;;;;;;;;;5053277;28;20025;-55
2024/03/21 03:16:53;;;;;;;2.90;2.17;;;;;;;;;;5053434;28;20032;-57
2024/03/21 03:19:19;;;;;;;3.00;1.90;;;;;;;;;;5053257;28;20474;-57
2024/03/21 03:21:45;;;;;;;2.75;1.65;;;;;;;;;;5053660;28;20377;-55
2024/03/21 03:24:11;;;;;;;2.72;2.00;;;;;;;;;;5054131;28;20435;-57
2024/03/21 03:26:37;;;;;;;3.15;2.13;;;;;;;;;;5054286;28;20029;-56
2024/03/21 03:29:03;;;;;;;2.65;2.03;;;;;;;;;;5060202;28;20091;-55
2024/03/21 03:31:29;;;;;;;2.90;2.30;;;;;;;;;;5059877;28;20064;-56
2024/03/21 03:36:39;;;;;;;3.60;2.05;;;;;;;;;;5060079;28;20095;-57
2024/03/21 03:39:06;;;;;;;2.63;1.73;;;;;;;;;;5060083;28;20495;-57
2024/03/21 03:41:32;;;;;;;2.55;1.35;;;;;;;;;;5060026;28;20029;-55
2024/03/21 03:43:58;;;;;;;3.90;2.08;;;;;;;;;;5059985;28;20478;-56
2024/03/21 03:46:24;;;;;;;2.78;1.88;;;;;;;;;;5060513;28;20025;-56
2024/03/21 03:48:50;;;;;;;7.25;2.08;;;;;;;;;;5060357;28;20033;-56
2024/03/21 03:51:16;;;;;;;3.28;1.80;;;;;;;;;;5059600;28;20086;-57
2024/03/21 03:53:42;;;;;;;7.47;2.30;;;;;;;;;;5059991;28;20032;-55
2024/03/21 03:56:08;;;;;;;4.82;1.65;;;;;;;;;;5060199;28;20036;-56
2024/03/21 03:58:34;;;;;;;2.92;1.90;;;;;;;;;;5060195;28;20033;-56
2024/03/21 04:01:01;;;;;;;3.55;2.10;;;;;;;;;;5059911;28;20029;-56
2024/03/21 04:03:27;;;;;;;4.00;2.13;;;;;;;;;;5059580;28;20031;-56
2024/03/21 04:06:00;;;;;;;2.50;1.67;;;;;;;;;;5059621;28;20021;-55
2024/03/21 04:08:26;;;;;;;3.40;1.65;;;;;;;;;;5060145;28;20366;-56
2024/03/21 04:10:53;;;;;;;2.65;1.63;;;;;;;;;;5059759;28;20025;-57
2024/03/21 04:13:19;;;;;;;3.75;2.38;;;;;;;;;;5060544;28;20048;-57
2024/03/21 04:15:45;;;;;;;3.78;2.10;;;;;;;;;;5058811;28;20067;-57
2024/03/21 04:18:11;;;;;;;3.30;2.15;;;;;;;;;;5059124;28;20029;-56
2024/03/21 04:20:37;;;;;;;3.20;1.92;;;;;;;;;;5059288;28;20028;-57
2024/03/21 04:23:03;;;;;;;2.83;1.60;;;;;;;;;;5059789;28;20128;-56
2024/03/21 04:25:30;;;;;;;3.25;1.85;;;;;;;;;;5059774;28;20029;-56
2024/03/21 04:27:56;;;;;;;3.80;1.92;;;;;;;;;;5059707;28;20025;-56
2024/03/21 04:30:22;;;;;;;3.28;1.95;;;;;;;;;;5060268;28;20025;-56
2024/03/21 04:32:48;;;;;;;3.78;1.80;;;;;;;;;;5059601;28;20367;-57
2024/03/21 04:35:13;;;;;;;2.88;1.73;;;;;;;;;;5059161;28;20036;-56
2024/03/21 04:37:39;;;;;;;2.95;1.70;;;;;;;;;;5059733;28;20094;-57
2024/03/21 04:40:06;;;;;;;5.45;2.05;;;;;;;;;;5056760;28;20064;-57
2024/03/21 04:42:32;;;;;;;2.78;2.10;;;;;;;;;;5056008;28;20451;-54
2024/03/21 04:44:58;;;;;;;3.17;2.00;;;;;;;;;;5055914;28;20440;-57
2024/03/21 04:47:24;;;;;;;4.28;2.22;;;;;;;;;;5055793;28;20064;-57
2024/03/21 04:49:54;;;;;;;2.25;1.60;;;;;;;;;;5056724;28;20040;-57
2024/03/21 04:52:20;;;;;;;3.70;2.40;;;;;;;;;;5056938;28;20090;-57
2024/03/21 04:54:50;;;;;;;4.35;2.00;;;;;;;;;;5056065;28;20029;-57
2024/03/21 04:57:16;;;;;;;2.77;2.00;;;;;;;;;;5054889;28;20064;-56
2024/03/21 04:59:42;;;;;;;4.05;2.45;;;;;;;;;;5056747;28;20283;-56
2024/03/21 05:02:08;;;;;;;2.70;2.08;;;;;;;;;;5056559;28;20426;-57
2024/03/21 05:04:34;;;;;;;2.22;1.58;;;;;;;;;;5056570;28;20021;-56
2024/03/21 05:07:00;;;;;;;4.22;2.17;;;;;;;;;;5056009;28;20079;-57
2024/03/21 05:09:26;;;;;;;3.28;1.77;;;;;;;;;;5056504;28;20124;-56
2024/03/21 05:11:52;;;;;;;2.85;2.13;;;;;;;;;;5055954;28;20025;-57
2024/03/21 05:14:18;;;;;;;3.88;1.88;;;;;;;;;;5056221;28;20344;-56
2024/03/21 05:16:44;;;;;;;3.60;2.15;;;;;;;;;;5055473;28;20112;-56
2024/03/21 05:19:13;;;;;;;1.98;1.50;;;;;;;;;;5056305;28;20064;-56
2024/03/21 05:21:40;;;;;;;2.47;1.90;;;;;;;;;;5055564;28;20094;-57
2024/03/21 05:24:06;;;;;;;5.03;2.15;;;;;;;;;;5055475;28;20033;-57
2024/03/21 05:26:32;;;;;;;4.70;2.05;;;;;;;;;;5055131;28;20036;-57
2024/03/21 05:28:58;;;;;;;3.78;2.80;;;;;;;;;;5055873;28;20174;-57
2024/03/21 05:31:25;;;;;;;4.20;2.08;;;;;;;;;;5055736;28;20025;-56
2024/03/21 05:33:51;;;;;;;3.38;1.95;;;;;;;;;;5055038;28;20378;-54
2024/03/21 05:36:17;;;;;;;3.25;2.50;;;;;;;;;;5055181;28;20021;-57
2024/03/21 05:38:46;;;;;;;3.40;1.75;;;;;;;;;;5054991;28;20036;-57
2024/03/21 05:41:12;;;;;;;3.00;1.83;;;;;;;;;;5054734;28;20379;-57
2024/03/21 05:43:39;;;;;;;3.10;2.13;;;;;;;;;;5054694;28;20027;-57
2024/03/21 05:46:05;;;;;;;5.70;1.90;;;;;;;;;;5055540;28;20399;-57
2024/03/21 05:48:31;;;;;;;2.72;1.85;;;;;;;;;;5055191;28;20025;-57
2024/03/21 05:50:57;;;;;;;2.55;1.85;;;;;;;;;;5054120;28;20104;-57
2024/03/21 05:53:23;;;;;;;2.95;1.80;;;;;;;;;;5054947;28;20025;-56
2024/03/21 05:55:58;;;;;;;3.20;2.25;;;;;;;;;;5054772;28;20025;-56
2024/03/21 05:58:24;;;;;;;4.70;2.25;;;;;;;;;;5054770;28;20049;-56
2024/03/21 06:00:54;;;;;;;2.80;1.77;;;;;;;;;;5054676;28;20076;-54
2024/03/21 06:03:21;;;;;;;2.88;1.90;;;;;;;;;;5054853;28;20064;-57
2024/03/21 06:05:46;;;;;;;2.90;1.52;;;;;;;;;;5054485;28;20471;-58
2024/03/21 06:08:12;;;;;;;2.67;1.75;;;;;;;;;;5054612;28;20059;-58
2024/03/21 06:10:40;;;;;;;2.78;1.42;;;;;;;;;;5054806;28;20143;-58
2024/03/21 06:13:05;;;;;;;3.47;2.03;;;;;;;;;;5054520;28;20017;-58
2024/03/21 06:15:31;;;;;;;2.78;1.75;;;;;;;;;;5054222;28;20387;-58
2024/03/21 06:17:58;;;;;;;3.03;2.08;;;;;;;;;;5054128;28;20017;-58
2024/03/21 06:20:25;;;;;;;4.65;2.97;;;;;;;;;;5054218;28;20412;-57
2024/03/21 06:22:51;;;;;;;3.28;2.30;;;;;;;;;;5054512;28;20025;-55
2024/03/21 06:25:16;;;;;;;4.57;2.25;;;;;;;;;;5054899;28;20021;-57
2024/03/21 06:27:43;;;;;;;3.00;1.90;;;;;;;;;;5054250;28;20025;-57
2024/03/21 06:30:10;;;;;;;4.72;2.35;;;;;;;;;;5054206;28;20025;-59
2024/03/21 06:32:35;;;;;;;3.15;2.25;;;;;;;;;;5054289;28;20051;-57
2024/03/21 06:35:01;;;;;;;3.58;2.33;;;;;;;;;;5054347;28;20025;-58
2024/03/21 06:37:31;;;;;;;2.53;1.63;;;;;;;;;;5053826;28;20327;-58
2024/03/21 06:39:58;;;;;;;2.85;1.80;;;;;;;;;;5054389;28;20094;-58
2024/03/21 06:42:24;;;;;;;3.05;1.95;;;;;;;;;;5054800;28;20033;-59
2024/03/21 06:44:49;;;;;;;4.25;2.22;;;;;;;;;;5053295;28;20048;-57
2024/03/21 06:47:15;;;;;;;2.90;1.83;;;;;;;;;;5053736;28;20025;-57
2024/03/21 06:49:42;;;;;;;3.63;1.98;;;;;;;;;;5054805;28;20504;-57
2024/03/21 06:52:07;;;;;;;2.85;2.08;;;;;;;;;;5053897;28;20024;-58
2024/03/21 06:54:34;;;;;;;2.45;1.85;;;;;;;;;;5053915;28;20029;-58
2024/03/21 06:57:00;;;;;;;3.70;1.92;;;;;;;;;;5053876;28;20106;-57
2024/03/21 06:59:26;;;;;;;2.90;1.98;;;;;;;;;;5053959;28;20413;-58
2024/03/21 07:01:52;;;;;;;2.40;1.80;;;;;;;;;;5052648;28;20109;-58
2024/03/21 07:04:18;;;;;;;3.30;2.00;;;;;;;;;;5053643;28;20092;-58
2024/03/21 07:06:44;;;;;;;3.17;2.35;;;;;;;;;;5053648;28;20052;-58
2024/03/21 07:09:12;;;;;;;5.65;2.55;;;;;;;;;;5053536;28;20036;-58
2024/03/21 07:11:38;;;;;;;4.63;1.80;;;;;;;;;;5053746;28;20024;-57
2024/03/21 07:14:05;;;;;;;2.83;1.73;;;;;;;;;;5053221;28;20031;-58
2024/03/21 07:16:31;;;;;;;2.60;2.22;;;;;;;;;;5053640;28;20214;-58
2024/03/21 07:18:58;;;;;;;2.97;2.22;;;;;;;;;;5053596;28;20037;-57
2024/03/21 07:21:24;;;;;;;3.15;2.20;;;;;;;;;;5053722;28;20029;-59
2024/03/21 07:23:50;;;;;;;3.17;2.08;;;;;;;;;;5053563;28;20471;-58
2024/03/21 07:26:18;;;;;;;3.10;2.47;;;;;;;;;;5053366;28;20031;-59
2024/03/21 07:28:44;;;;;;;7.95;2.53;;;;;;;;;;5053658;28;20036;-58
2024/03/21 07:31:10;;;;;;;2.70;1.80;;;;;;;;;;5053583;28;20025;-59
2024/03/21 07:33:36;;;;;;;6.32;2.13;;;;;;;;;;5053204;28;20410;-58
2024/03/21 07:36:02;;;;;;;3.58;2.40;;;;;;;;;;5053489;28;20025;-58
2024/03/21 07:38:28;;;;;;;3.15;1.90;;;;;;;;;;5053267;28;20119;-56
2024/03/21 07:40:57;;;;;;;3.13;1.85;;;;;;;;;;5053537;28;20017;-58
2024/03/21 07:43:24;;;;;;;6.18;2.28;;;;;;;;;;5053227;28;20435;-59
2024/03/21 07:45:50;;;;;;;3.13;2.10;;;;;;;;;;5053386;28;20108;-58
2024/03/21 07:48:16;;;;;;;3.75;2.17;;;;;;;;;;5053770;28;20029;-58
2024/03/21 07:50:42;;;;;;;3.78;2.03;;;;;;;;;;5053439;28;20025;-59
2024/03/21 07:53:08;;;;;;;3.08;2.17;;;;;;;;;;5053914;28;20056;-59
2024/03/21 07:55:34;;;;;;;3.72;2.13;;;;;;;;;;5053844;28;20021;-58
2024/03/21 07:58:05;;;;;;;5.07;2.22;;;;;;;;;;5052780;28;20045;-58
2024/03/21 08:00:31;;;;;;;2.90;2.17;;;;;;;;;;5053961;28;20036;-59
2024/03/21 08:02:57;;;;;;;2.65;2.00;;;;;;;;;;5053209;28;20025;-58
2024/03/21 08:05:23;;;;;;;2.85;1.67;;;;;;;;;;5053671;28;20386;-58
2024/03/21 08:07:49;;;;;;;3.00;2.20;;;;;;;;;;5053146;28;20017;-58
2024/03/21 08:10:15;;;;;;;4.78;3.00;;;;;;;;;;5053765;28;20427;-58
2024/03/21 08:12:41;;;;;;;3.85;2.92;;;;;;;;;;5053699;28;20018;-57
2024/03/21 08:15:08;;;;;;;2.90;2.13;;;;;;;;;;5057311;28;20025;-58
2024/03/21 08:17:34;;;;;;;4.88;3.75;;;;;;;;;;5056875;28;20120;-59
2024/03/21 08:20:01;;;;;;;3.08;2.38;;;;;;;;;;5057175;28;20073;-59
2024/03/21 08:22:27;;;;;;;6.10;2.65;;;;;;;;;;5056615;28;20514;-58
2024/03/21 08:24:53;;;;;;;2.83;2.00;;;;;;;;;;5056611;28;20103;-58
2024/03/21 08:27:19;;;;;;;5.28;3.08;;;;;;;;;;5056839;28;20061;-59
2024/03/21 08:29:50;;;;;;;3.97;2.58;;;;;;;;;;5056060;28;20474;-59
2024/03/21 08:32:21;;;;;;;3.38;2.55;;;;;;;;;;5056494;28;20032;-58
2024/03/21 08:34:47;;;;;;;4.00;2.45;;;;;;;;;;5057045;28;20032;-59
2024/03/21 08:37:14;;;;;;;3.42;2.65;;;;;;;;;;5056279;28;20086;-58
2024/03/21 08:39:40;;;;;;;3.20;2.15;;;;;;;;;;5056641;28;20028;-59
2024/03/21 08:42:06;;;;;;;3.05;2.08;;;;;;;;;;5056542;28;20029;-58
2024/03/21 08:44:32;;;;;;;5.57;2.75;;;;;;;;;;5056475;28;20044;-58
2024/03/21 08:46:58;;;;;;;3.55;2.28;;;;;;;;;;5056476;28;20029;-57
2024/03/21 08:49:24;;;;;;;3.15;2.33;;;;;;;;;;5057069;28;20059;-59
2024/03/21 08:51:50;;;;;;;3.17;2.28;;;;;;;;;;5056363;28;20025;-59
2024/03/21 08:54:16;;;;;;;7.22;2.45;;;;;;;;;;5057020;28;20410;-58
2024/03/21 08:56:42;;;;;;;3.25;2.67;;;;;;;;;;5056555;28;20120;-58
2024/03/21 08:59:09;;;;;;;2.83;2.22;;;;;;;;;;5056706;28;20119;-57
2024/03/21 09:01:35;;;;;;;5.30;2.63;;;;;;;;;;5056149;28;20033;-58
2024/03/21 09:04:01;;;;;;;4.28;2.97;;;;;;;;;;5056330;28;20103;-58
2024/03/21 09:06:30;;;;;;;4.22;2.72;;;;;;;;;;5056616;28;20032;-58
2024/03/21 09:08:56;;;;;;;5.72;2.85;;;;;;;;;;5056055;28;20024;-58
2024/03/21 09:11:22;;;;;;;3.70;2.58;;;;;;;;;;5055947;28;20037;-58
2024/03/21 09:13:48;;;;;;;2.97;2.13;;;;;;;;;;5055715;28;20087;-59
2024/03/21 09:16:14;;;;;;;4.63;3.35;;;;;;;;;;5055585;28;20452;-58
2024/03/21 09:18:43;;;;;;;3.08;2.47;;;;;;;;;;5056070;28;20082;-58
2024/03/21 09:21:12;;;;;;;4.45;3.10;;;;;;;;;;5055664;28;20033;-58
2024/03/21 09:23:38;;;;;;;3.83;2.80;;;;;;;;;;5056333;28;20454;-58
2024/03/21 09:26:04;;;;;;;5.20;3.42;;;;;;;;;;5054801;28;20195;-59
2024/03/21 09:28:30;;;;;;;4.13;2.63;;;;;;;;;;5056288;28;20036;-58
2024/03/21 09:30:56;;;;;;;3.85;2.83;;;;;;;;;;5056023;28;20019;-58
2024/03/21 09:33:22;;;;;;;6.63;3.45;;;;;;;;;;5056173;28;20043;-58
2024/03/21 09:35:58;;;;;;;7.03;3.42;;;;;;;;;;5055393;28;20471;-59
2024/03/21 09:38:24;;;;;;;6.03;3.25;;;;;;;;;;5056000;28;20065;-58
2024/03/21 09:40:51;;;;;;;4.18;3.35;;;;;;;;;;5056278;28;20028;-58
2024/03/21 09:43:17;;;;;;;4.20;3.33;;;;;;;;;;5055497;28;20063;-58
2024/03/21 09:45:44;;;;;;;5.65;3.13;;;;;;;;;;5055224;28;20494;-58
2024/03/21 09:48:10;;;;;;;5.18;3.03;;;;;;;;;;5056129;28;20031;-58
2024/03/21 09:50:36;;;;;;;4.07;2.97;;;;;;;;;;5055330;28;20024;-58
2024/03/21 09:53:02;;;;;;;6.50;3.67;;;;;;;;;;5055648;28;20360;-59
2024/03/21 09:55:29;;;;;;;5.45;3.70;;;;;;;;;;5055365;28;20025;-59
2024/03/21 09:57:55;;;;;;;3.63;2.67;;;;;;;;;;5055452;28;20187;-59
2024/03/21 10:00:21;;;;;;;7.82;3.35;;;;;;;;;;5054726;28;20506;-58
2024/03/21 10:02:47;;;;;;;5.47;2.85;;;;;;;;;;5055154;28;20117;-58
2024/03/21 10:05:23;;;;;;;4.07;2.75;;;;;;;;;;5054855;28;20067;-58
2024/03/21 10:07:49;;;;;;;4.65;3.30;;;;;;;;;;5055410;28;20021;-59
2024/03/21 10:10:15;;;;;;;5.07;3.67;;;;;;;;;;5054973;28;20077;-59
2024/03/21 10:12:41;;;;;;;4.03;3.28;;;;;;;;;;5055438;28;20053;-59
2024/03/21 10:15:13;;;;;;;5.35;3.65;;;;;;;;;;5054766;28;20352;-59
2024/03/21 10:17:41;;;;;;;4.35;3.50;;;;;;;;;;5054710;28;20116;-58
2024/03/21 10:20:10;;;;;;;4.10;2.60;;;;;;;;;;5055451;28;20473;-58
2024/03/21 10:22:43;;;;;;;7.20;3.42;;;;;;;;;;5054537;28;20029;-58
2024/03/21 10:25:12;;;;;;;4.18;2.97;;;;;;;;;;5055100;28;20463;-59
2024/03/21 10:27:39;;;;;;;6.18;4.07;;;;;;;;;;5054565;28;20028;-58
2024/03/21 10:30:11;;;;;;;7.95;3.78;;;;;;;;;;5054976;28;20123;-59
2024/03/21 10:32:38;;;;;;;5.35;3.85;;;;;;;;;;5055057;28;20398;-57
2024/03/21 10:35:05;;;;;;;4.82;3.15;;;;;;;;;;5054207;28;20382;-57
2024/03/21 10:37:31;;;;;;;4.70;3.45;;;;;;;;;;5054215;28;20024;-57
2024/03/21 10:39:57;;;;;;;5.55;4.15;;;;;;;;;;5054685;28;20028;-57
2024/03/21 10:42:30;;;;;;;5.68;3.80;;;;;;;;;;5054236;28;20104;-58
2024/03/21 10:44:58;;;;;;;7.15;3.53;;;;;;;;;;5054995;28;20029;-58
2024/03/21 10:47:24;;;;;;;8.77;4.55;;;;;;;;;;5053753;28;20029;-58
2024/03/21 10:49:50;;;;;;;5.13;4.45;;;;;;;;;;5054673;28;20021;-58
2024/03/21 10:52:17;;;;;;;5.95;4.80;;;;;;;;;;5054345;28;20021;-58
2024/03/21 10:54:43;;;;;;;5.43;4.75;;;;;;;;;;5053970;28;20469;-58
2024/03/21 10:57:16;;;;;;;8.95;5.68;;;;;;;;;;5054174;28;20049;-58
2024/03/21 10:59:43;;;;;;;7.47;5.40;;;;;;;;;;5053783;28;20025;-58
2024/03/21 11:02:13;;;;;;;6.80;4.80;;;;;;;;;;5053408;28;20493;-57
2024/03/21 11:04:39;;;;;;;;;;;;;;;;;;5054263;28;20112;-58
2024/03/21 11:07:07;;;;;;;7.15;5.70;;;;;;;;;;5053590;28;20046;-58
2024/03/21 11:09:34;;;;;;;5.85;4.90;;;;;;;;;;5054387;28;20032;-58
2024/03/21 11:12:00;;;;;;;7.57;5.63;;;;;;;;;;5054039;28;20029;-58
2024/03/21 11:14:26;;;;;;;9.05;5.75;;;;;;;;;;5053807;28;20413;-58
2024/03/21 11:16:55;;;;;;;7.90;6.00;;;;;;;;;;5053965;28;20021;-57
2024/03/21 11:19:21;;;;;;;9.38;5.82;;;;;;;;;;5053387;28;20068;-58
2024/03/21 11:21:47;;;;;;;7.30;4.95;;;;;;;;;;5053547;28;20035;-58
2024/03/21 11:24:15;;;;;;;5.63;5.00;;;;;;;;;;5053883;28;20029;-58
2024/03/21 11:26:42;;;;;;;6.80;4.88;;;;;;;;;;5053605;28;20032;-57
2024/03/21 11:29:12;;;;;;;7.05;4.32;;;;;;;;;;5053819;28;20079;-57
2024/03/21 11:31:38;;;;;;;;;;;;;;;;;;5053987;28;20021;-58
2024/03/21 11:34:04;;;;;;;5.47;4.55;;;;;;;;;;5053866;28;19962;-58
2024/03/21 11:36:31;;;;;;;6.97;4.75;;;;;;;;;;5053082;28;20057;-58
2024/03/21 11:38:57;;;;;;;9.27;4.70;;;;;;;;;;5054445;28;20039;-58
2024/03/21 11:41:27;;;;;;;6.38;5.13;;;;;;;;;;5054058;28;20033;-58
2024/03/21 11:43:54;;;;;;;6.53;4.57;;;;;;;;;;5053053;28;20031;-58
2024/03/21 11:46:20;;;;;;;6.18;5.15;;;;;;;;;;5053147;28;20463;-58
2024/03/21 11:49:05;;;;;;;6.47;5.05;;;;;;;;;;5056338;28;20366;-59
2024/03/21 11:51:32;;;;;;;7.03;5.60;;;;;;;;;;5057827;28;20366;-59
2024/03/21 11:54:00;;;;;;;7.82;6.45;;;;;;;;;;5057426;28;20470;-58
2024/03/21 11:56:26;;;;;;;6.35;5.40;;;;;;;;;;5057113;28;20094;-58
2024/03/21 11:58:52;;;;;;;7.40;6.65;;;;;;;;;;5057529;28;20037;-59
2024/03/21 12:01:18;;;;;;;8.52;7.47;;;;;;;;;;5057679;28;20028;-58
2024/03/21 12:03:44;;;;;;;8.02;7.22;;;;;;;;;;5057262;28;20403;-58
2024/03/21 12:06:10;;;;;;;8.25;6.72;;;;;;;;;;5057183;28;20024;-58
2024/03/21 12:08:36;;;;;;;6.82;6.13;;;;;;;;;;5057726;28;20032;-58
2024/03/21 12:11:03;;;;;;;8.73;6.30;;;;;;;;;;5057345;28;20025;-58
2024/03/21 12:13:29;;;;;;;7.65;6.90;;;;;;;;;;5057060;28;20021;-58
2024/03/21 12:15:55;;;;;;;6.75;6.07;;;;;;;;;;5056748;28;20096;-57
2024/03/21 12:18:21;;;;;;;8.15;7.13;;;;;;;;;;5056962;28;20025;-58
2024/03/21 12:20:47;;;;;;;11.40;7.20;;;;;;;;;;5056896;28;20036;-59
2024/03/21 12:23:13;;;;;;;6.72;5.97;;;;;;;;;;5057459;28;20526;-58
2024/03/21 12:25:39;;;;;;;7.43;6.43;;;;;;;;;;5056829;28;20029;-58
2024/03/21 12:28:05;;;;;;;10.13;6.63;;;;;;;;;;5056967;28;20071;-58
2024/03/21 12:30:37;;;;;;;7.13;5.78;;;;;;;;;;5057485;28;20029;-58
2024/03/21 12:33:06;;;;;;;7.28;5.90;;;;;;;;;;5056808;28;20063;-58
2024/03/21 12:35:32;;;;;;;7.60;6.68;;;;;;;;;;5056299;28;20067;-58
2024/03/21 12:37:58;;;;;;;7.00;6.10;;;;;;;;;;5056859;28;20021;-59
2024/03/21 12:40:24;;;;;;;8.27;7.43;;;;;;;;;;5056653;28;20025;-58
2024/03/21 12:42:50;;;;;;;7.80;7.07;;;;;;;;;;5056468;28;20378;-58
2024/03/21 12:45:16;;;;;;;7.95;7.15;;;;;;;;;;5056493;28;20025;-58
2024/03/21 12:47:42;;;;;;;7.57;6.72;;;;;;;;;;5056530;28;20021;-58
2024/03/21 12:50:09;;;;;;;7.72;6.53;;;;;;;;;;5056557;28;20103;-58
2024/03/21 12:52:35;;;;;;;7.75;6.95;;;;;;;;;;5056058;28;20029;-58
2024/03/21 12:55:00;;;;;;;11.43;6.38;;;;;;;;;;5056268;28;20174;-59
2024/03/21 12:57:26;;;;;;;9.63;7.07;;;;;;;;;;5056405;28;20044;-58
2024/03/21 12:59:53;;;;;;;9.82;7.50;;;;;;;;;;5055163;28;20029;-58
2024/03/21 13:02:19;;;;;;;8.75;6.57;;;;;;;;;;5056203;28;20033;-59
2024/03/21 13:04:48;;;;;;;7.90;7.15;;;;;;;;;;5056146;28;20021;-58
2024/03/21 13:07:14;;;;;;;7.68;6.93;;;;;;;;;;5056091;28;20099;-58
2024/03/21 13:09:40;;;;;;;7.10;6.40;;;;;;;;;;5056389;28;20414;-58
2024/03/21 13:12:06;;;;;;;6.82;6.13;;;;;;;;;;5056077;28;20047;-58
2024/03/21 13:14:32;;;;;;;9.50;5.82;;;;;;;;;;5055694;28;20052;-59
2024/03/21 13:16:58;;;;;;;6.97;6.35;;;;;;;;;;5055937;28;20384;-58
2024/03/21 13:19:25;;;;;;;7.22;6.53;;;;;;;;;;5056272;28;20094;-58
2024/03/21 13:21:51;;;;;;;6.68;5.97;;;;;;;;;;5055692;28;20087;-58
2024/03/21 13:24:17;;;;;;;6.38;5.72;;;;;;;;;;5056094;28;20021;-58
2024/03/21 13:26:43;;;;;;;6.45;5.50;;;;;;;;;;5056258;28;20453;-58
2024/03/21 13:29:09;;;;;;;6.15;5.55;;;;;;;;;;5055713;28;20059;-58
2024/03/21 13:31:35;;;;;;;11.00;5.13;;;;;;;;;;5055765;28;20033;-59
2024/03/21 13:34:01;;;;;;;6.18;5.18;;;;;;;;;;5055552;28;20028;-58
2024/03/21 13:36:27;;;;;;;6.30;4.60;;;;;;;;;;5055435;28;20031;-59
2024/03/21 13:38:57;;;;;;;7.07;5.18;;;;;;;;;;5055741;28;20068;-58
2024/03/21 13:41:23;;;;;;;6.35;5.30;;;;;;;;;;5055965;28;20094;-58
2024/03/21 13:43:49;;;;;;;6.10;5.40;;;;;;;;;;5055330;28;20036;-59
2024/03/21 13:46:15;;;;;;;5.47;4.80;;;;;;;;;;5055616;28;20467;-59
2024/03/21 13:48:41;;;;;;;6.45;5.47;;;;;;;;;;5056090;28;20031;-59
2024/03/21 13:51:07;;;;;;;5.90;4.80;;;;;;;;;;5055217;28;20463;-59
2024/03/21 13:53:33;;;;;;;8.43;5.70;;;;;;;;;;5055871;28;20025;-59
2024/03/21 13:55:59;;;;;;;6.07;5.05;;;;;;;;;;5054936;28;20031;-60
2024/03/21 13:58:25;;;;;;;8.45;5.95;;;;;;;;;;5054864;28;20119;-59
2024/03/21 14:00:52;;;;;;;6.65;5.40;;;;;;;;;;5055631;28;20025;-59
2024/03/21 14:03:18;;;;;;;10.38;7.22;;;;;;;;;;5054986;28;20025;-59
2024/03/21 14:05:44;;;;;;;14.10;11.00;;;;;;;;;;5054991;28;20467;-58
2024/03/21 14:08:12;;;;;;;19.50;17.17;;;;;;;;;;5055017;28;20025;-59
2024/03/21 14:10:38;;;;;;;22.50;17.55;;;;;;;;;;5054483;28;20032;-59
2024/03/21 14:13:05;;;;;;;20.58;17.80;;;;;;;;;;5054534;28;20013;-59
2024/03/21 14:15:32;;;;;;;24.90;21.80;;;;;;;;;;5055604;28;20033;-59
2024/03/21 14:17:58;;;;;;;23.92;20.80;;;;;;;;;;5054990;28;20443;-59
2024/03/21 14:20:24;;;;;;;23.98;20.90;;;;;;;;;;5055375;28;20025;-59
2024/03/21 14:22:51;;;;;;;23.23;20.67;;;;;;;;;;5054559;28;20040;-58
2024/03/21 14:25:17;;;;;;;26.60;22.52;;;;;;;;;;5054489;28;20108;-59
2024/03/21 14:27:43;;;;;;;26.23;21.77;;;;;;;;;;5054429;28;20024;-59
2024/03/21 14:30:10;;;;;;;24.25;21.40;;;;;;;;;;5054745;28;20344;-59
2024/03/21 14:32:43;;;;;;;27.27;22.42;;;;;;;;;;5054743;28;20029;-58
2024/03/21 14:35:12;;;;;;;24.83;20.10;;;;;;;;;;5054869;28;20021;-59
2024/03/21 14:37:40;;;;;;;24.52;20.13;;;;;;;;;;5054778;28;20108;-59
2024/03/21 14:40:07;;;;;;;20.27;18.13;;;;;;;;;;5054541;28;20064;-59
2024/03/21 14:42:34;;;;;;;23.30;18.83;;;;;;;;;;5053694;28;20047;-59